Time;durP1;ratioP1;P1;durP2;ratioP2;P2;SDS_P1;SDS_P2;PMS_P1;PMS_P2;Temp;Humidity;BMP_temperature;BMP_pressure;BME280_temperature;BME280_humidity;BME280_pressure;Samples;Min_cycle;Max_cycle;Signal;HPM_P1;HPM_P2
2023/11/28 00:01:42;;;;;;;;;;;154.30;2252.80;;;;;;4988178;28;19925;-76
2023/11/28 00:04:08;;;;;;;;;;;154.30;2252.80;;;;;;4976798;28;19914;-76
2023/11/28 00:06:33;;;;;;;;;;;154.30;2252.80;;;;;;4988092;28;20320;-76
2023/11/28 00:08:59;;;;;;;;;;;154.30;2252.80;;;;;;4989370;28;19906;-76
2023/11/28 00:11:24;;;;;;;;;;;154.40;2252.80;;;;;;4989023;28;20399;-76
2023/11/28 00:13:50;;;;;;;;;;;154.30;2252.80;;;;;;4984589;28;19906;-76
2023/11/28 00:16:17;;;;;;;;;;;154.30;2252.80;;;;;;4985664;28;19952;-76
2023/11/28 00:18:43;;;;;;;;;;;154.20;2252.80;;;;;;4970153;28;19914;-76
2023/11/28 00:21:09;;;;;;;;;;;154.10;2252.80;;;;;;4975902;28;19921;-76
2023/11/28 00:23:34;;;;;;;;;;;154.10;2252.80;;;;;;4994277;28;19922;-75
2023/11/28 00:26:00;;;;;;;;;;;154.10;2252.80;;;;;;4974331;28;20330;-76
2023/11/28 00:28:26;;;;;;;;;;;154.10;2252.80;;;;;;4976206;28;19905;-76
2023/11/28 00:30:52;;;;;;;;;;;154.00;2252.80;;;;;;4994425;28;19905;-76
2023/11/28 00:33:18;;;;;;;;;;;154.10;2252.80;;;;;;4976262;28;19906;-76
2023/11/28 00:35:43;;;;;;;;;;;154.10;2252.80;;;;;;4976789;28;20425;-76
2023/11/28 00:38:09;;;;;;;;;;;154.10;2252.80;;;;;;4994125;28;19906;-76
2023/11/28 00:40:34;;;;;;;;;;;154.10;2252.80;;;;;;4993849;28;20350;-76
2023/11/28 00:43:00;;;;;;;;;;;154.10;2252.80;;;;;;4993897;28;19993;-76
2023/11/28 00:45:26;;;;;;;;;;;154.10;2252.80;;;;;;4976945;28;19909;-76
2023/11/28 00:47:52;;;;;;;;;;;154.10;2252.80;;;;;;4993974;28;20276;-76
2023/11/28 00:50:18;;;;;;;;;;;154.00;2252.80;;;;;;4976210;28;20007;-76
2023/11/28 00:52:44;;;;;;;;;;;153.90;2252.80;;;;;;4993857;28;20396;-76
2023/11/28 00:55:10;;;;;;;;;;;154.20;2252.80;;;;;;4976475;28;19929;-76
2023/11/28 00:57:35;;;;;;;;;;;153.90;2252.80;;;;;;4976323;28;20271;-76
2023/11/28 01:00:01;;;;;;;;;;;153.80;2252.80;;;;;;4976521;28;19912;-76
2023/11/28 01:02:27;;;;;;;;;;;153.90;2252.80;;;;;;4976244;28;19906;-76
2023/11/28 01:04:53;;;;;;;;;;;153.80;2252.80;;;;;;4976114;28;19914;-76
2023/11/28 01:07:18;;;;;;;;;;;153.70;2252.80;;;;;;4976457;28;19910;-76
2023/11/28 01:09:44;;;;;;;;;;;153.80;2252.80;;;;;;4993441;28;19953;-76
2023/11/28 01:12:09;;;;;;;;;;;153.80;2252.80;;;;;;4976484;28;19906;-76
2023/11/28 01:14:35;;;;;;;;;;;153.80;2252.80;;;;;;4993695;28;19960;-76
2023/11/28 01:17:04;;;;;;;;;;;153.80;2252.80;;;;;;4993749;28;20286;-76
2023/11/28 01:19:29;;;;;;;;;;;153.80;2252.80;;;;;;4992057;28;19906;-76
2023/11/28 01:21:55;;;;;;;;;;;153.90;2252.80;;;;;;4965840;28;19980;-76
2023/11/28 01:24:20;;;;;;;;;;;153.90;2252.80;;;;;;4989785;28;19960;-76
2023/11/28 01:26:46;;;;;;;;;;;153.90;2252.80;;;;;;4976125;28;20245;-76
2023/11/28 01:29:11;;;;;;;;;;;153.90;2252.80;;;;;;4993429;28;19910;-76
2023/11/28 01:31:37;;;;;;;;;;;153.90;2252.80;;;;;;4976608;28;19906;-76
2023/11/28 01:34:02;;;;;;;;;;;153.90;2252.80;;;;;;4997187;28;19949;-76
2023/11/28 01:36:28;;;;;;;;;;;153.90;2252.80;;;;;;4997345;28;20287;-76
2023/11/28 01:38:54;;;;;;;;;;;153.90;2252.80;;;;;;4997114;28;19906;-76
2023/11/28 01:41:19;;;;;;;;;;;153.90;2252.80;;;;;;4979788;28;19909;-76
2023/11/28 01:43:45;;;;;;;;;;;153.90;2252.80;;;;;;4996722;28;19917;-76
2023/11/28 01:46:11;;;;;;;;;;;153.90;2252.80;;;;;;4979646;28;19906;-76
2023/11/28 01:48:38;;;;;;;;;;;153.90;2252.80;;;;;;4996842;28;19944;-76
2023/11/28 01:51:04;;;;;;;;;;;153.80;2252.80;;;;;;4979452;28;20000;-75
2023/11/28 01:53:30;;;;;;;;;;;153.90;2252.80;;;;;;4996718;28;19913;-76
2023/11/28 01:55:56;;;;;;;;;;;153.90;2252.80;;;;;;4978722;28;19962;-75
2023/11/28 01:58:22;;;;;;;;;;;153.90;2252.80;;;;;;4996612;28;19952;-75
2023/11/28 02:00:48;;;;;;;;;;;153.90;2252.80;;;;;;4996699;28;19905;-75
2023/11/28 02:03:13;;;;;;;;;;;154.00;2252.80;;;;;;4996652;28;19906;-76
2023/11/28 02:05:39;;;;;;;;;;;154.00;2252.80;;;;;;4996736;28;19910;-76
2023/11/28 02:08:06;;;;;;;;;;;154.10;2252.80;;;;;;4979326;28;20359;-76
2023/11/28 02:10:33;;;;;;;;;;;154.00;2252.80;;;;;;4979063;28;19906;-76
2023/11/28 02:12:59;;;;;;;;;;;154.00;2252.80;;;;;;4996326;28;20374;-76
2023/11/28 02:15:38;;;;;;;;;;;154.00;2252.80;;;;;;4996566;28;19910;-76
2023/11/28 02:18:03;;;;;;;;;;;153.90;2252.80;;;;;;4996343;28;19906;-76
2023/11/28 02:20:29;;;;;;;;;;;153.90;2252.80;;;;;;4978680;28;19917;-76
2023/11/28 02:22:55;;;;;;;;;;;153.90;2252.80;;;;;;4996437;28;20303;-76
2023/11/28 02:25:21;;;;;;;;;;;153.90;2252.80;;;;;;4978600;28;19914;-76
2023/11/28 02:27:46;;;;;;;;;;;153.90;2252.80;;;;;;4996210;28;20270;-76
2023/11/28 02:30:12;;;;;;;;;;;153.90;2252.80;;;;;;4978908;28;19905;-76
2023/11/28 02:32:37;;;;;;;;;;;153.90;2252.80;;;;;;4995996;28;19945;-76
2023/11/28 02:35:03;;;;;;;;;;;153.90;2252.80;;;;;;4996109;28;19906;-76
2023/11/28 02:37:29;;;;;;;;;;;154.00;2252.80;;;;;;4995988;28;19913;-76
2023/11/28 02:39:54;;;;;;;;;;;154.10;2252.80;;;;;;4996096;28;19909;-76
2023/11/28 02:42:20;;;;;;;;;;;154.10;2252.80;;;;;;4995074;28;20355;-75
2023/11/28 02:44:45;;;;;;;;;;;154.10;2252.80;;;;;;4995001;28;19937;-76
2023/11/28 02:47:11;;;;;;;;;;;154.00;2252.80;;;;;;4978659;28;19906;-76
2023/11/28 02:49:37;;;;;;;;;;;154.00;2252.80;;;;;;4992131;28;20279;-76
2023/11/28 02:52:02;;;;;;;;;;;153.90;2252.80;;;;;;4983629;28;19910;-76
2023/11/28 02:54:28;;;;;;;;;;;153.80;2252.80;;;;;;4977673;28;19906;-76
2023/11/28 02:56:53;;;;;;;;;;;153.80;2252.80;;;;;;4978123;28;20371;-76
2023/11/28 02:59:19;;;;;;;;;;;153.70;2252.80;;;;;;4978185;28;19906;-76
2023/11/28 03:01:44;;;;;;;;;;;153.70;2252.80;;;;;;4978254;28;19910;-75
2023/11/28 03:04:10;;;;;;;;;;;153.80;2252.80;;;;;;4977998;28;20271;-76
2023/11/28 03:06:35;;;;;;;;;;;153.90;2252.80;;;;;;4977894;28;19906;-76
2023/11/28 03:09:01;;;;;;;;;;;153.90;2252.80;;;;;;4977967;28;19910;-76
2023/11/28 03:11:27;;;;;;;;;;;153.90;2252.80;;;;;;4995285;28;20310;-76
2023/11/28 03:13:52;;;;;;;;;;;153.90;2252.80;;;;;;4978132;28;20311;-76
2023/11/28 03:16:18;;;;;;;;;;;154.00;2252.80;;;;;;4977577;28;19963;-76
2023/11/28 03:18:43;;;;;;;;;;;154.10;2252.80;;;;;;4995477;28;19957;-76
2023/11/28 03:21:09;;;;;;;;;;;154.10;2252.80;;;;;;4977405;28;19918;-76
2023/11/28 03:23:35;;;;;;;;;;;154.10;2252.80;;;;;;4977899;28;19917;-76
2023/11/28 03:26:00;;;;;;;;;;;154.10;2252.80;;;;;;4994966;28;19909;-76
2023/11/28 03:28:26;;;;;;;;;;;154.20;2252.80;;;;;;4977269;28;20356;-76
2023/11/28 03:30:52;;;;;;;;;;;154.20;2252.80;;;;;;4994868;28;19939;-75
2023/11/28 03:33:17;;;;;;;;;;;154.20;2252.80;;;;;;4995006;28;19905;-76
2023/11/28 03:35:43;;;;;;;;;;;154.20;2252.80;;;;;;4994850;28;19996;-76
2023/11/28 03:38:09;;;;;;;;;;;154.20;2252.80;;;;;;4995064;28;19906;-76
2023/11/28 03:40:35;;;;;;;;;;;154.20;2252.80;;;;;;4977535;28;19933;-76
2023/11/28 03:43:00;;;;;;;;;;;154.20;2252.80;;;;;;4977218;28;20351;-76
2023/11/28 03:45:26;;;;;;;;;;;154.30;2252.80;;;;;;4977059;28;20009;-75
2023/11/28 03:47:52;;;;;;;;;;;154.30;2252.80;;;;;;4977414;28;19910;-76
2023/11/28 03:50:18;;;;;;;;;;;154.30;2252.80;;;;;;4979997;28;19918;-76
2023/11/28 03:52:43;;;;;;;;;;;154.30;2252.80;;;;;;4993192;28;20383;-75
2023/11/28 03:55:10;;;;;;;;;;;154.40;2252.80;;;;;;4994511;28;19912;-76
2023/11/28 03:57:35;;;;;;;;;;;154.40;2252.80;;;;;;4994207;28;19997;-76
2023/11/28 04:00:01;;;;;;;;;;;154.30;2252.80;;;;;;4994156;28;19913;-76
2023/11/28 04:02:26;;;;;;;;;;;154.40;2252.80;;;;;;4994571;28;19953;-76
2023/11/28 04:04:52;;;;;;;;;;;154.40;2252.80;;;;;;4994338;28;19918;-76
2023/11/28 04:07:17;;;;;;;;;;;154.40;2252.80;;;;;;4994559;28;20446;-76
2023/11/28 04:09:43;;;;;;;;;;;154.40;2252.80;;;;;;4976678;28;19910;-75
2023/11/28 04:12:09;;;;;;;;;;;154.30;2252.80;;;;;;4976905;28;19906;-75
2023/11/28 04:14:34;;;;;;;;;;;154.30;2252.80;;;;;;4994343;28;19948;-76
2023/11/28 04:17:00;;;;;;;;;;;154.20;2252.80;;;;;;4994264;28;20380;-76
2023/11/28 04:19:26;;;;;;;;;;;154.30;2252.80;;;;;;4975897;28;19912;-75
2023/11/28 04:21:51;;;;;;;;;;;154.30;2252.80;;;;;;4965873;28;19922;-75
2023/11/28 04:24:17;;;;;;;;;;;154.30;2252.80;;;;;;4989882;28;19920;-76
2023/11/28 04:26:42;;;;;;;;;;;154.30;2252.80;;;;;;4994108;28;19906;-75
2023/11/28 04:29:09;;;;;;;;;;;154.30;2252.80;;;;;;4994061;28;20013;-76
2023/11/28 04:31:36;;;;;;;;;;;154.20;2252.80;;;;;;4976794;28;20344;-76
2023/11/28 04:34:01;;;;;;;;;;;154.20;2252.80;;;;;;4994483;28;20000;-76
2023/11/28 04:36:27;;;;;;;;;;;154.20;2252.80;;;;;;4976895;28;19941;-75
2023/11/28 04:38:52;;;;;;;;;;;154.20;2252.80;;;;;;4994025;28;19906;-76
2023/11/28 04:41:18;;;;;;;;;;;154.20;2252.80;;;;;;4993936;28;20000;-75
2023/11/28 04:43:44;;;;;;;;;;;154.20;2252.80;;;;;;4976239;28;20024;-75
2023/11/28 04:46:10;;;;;;;;;;;154.20;2252.80;;;;;;4976950;28;19909;-76
2023/11/28 04:48:35;;;;;;;;;;;154.30;2252.80;;;;;;4993562;28;19914;-76
2023/11/28 04:51:01;;;;;;;;;;;154.30;2252.80;;;;;;4993760;28;20359;-76
2023/11/28 04:53:27;;;;;;;;;;;154.30;2252.80;;;;;;4976386;28;19910;-75
2023/11/28 04:55:52;;;;;;;;;;;154.40;2252.80;;;;;;4976333;28;20000;-76
2023/11/28 04:58:18;;;;;;;;;;;154.40;2252.80;;;;;;4993724;28;19906;-76
2023/11/28 05:00:44;;;;;;;;;;;154.40;2252.80;;;;;;4993868;28;19917;-75
2023/11/28 05:03:10;;;;;;;;;;;154.40;2252.80;;;;;;4976225;28;19905;-76
2023/11/28 05:05:35;;;;;;;;;;;154.40;2252.80;;;;;;4993870;28;19920;-75
2023/11/28 05:08:01;;;;;;;;;;;154.40;2252.80;;;;;;4978740;28;19909;-76
2023/11/28 05:10:27;;;;;;;;;;;154.40;2252.80;;;;;;4980369;28;20000;-75
2023/11/28 05:12:54;;;;;;;;;;;154.40;2252.80;;;;;;4979913;28;19905;-75
2023/11/28 05:15:19;;;;;;;;;;;154.40;2252.80;;;;;;4980168;28;19920;-76
2023/11/28 05:17:45;;;;;;;;;;;154.40;2252.80;;;;;;4980137;28;19909;-75
2023/11/28 05:20:12;;;;;;;;;;;154.40;2252.80;;;;;;4979723;28;19909;-76
2023/11/28 05:22:37;;;;;;;;;;;179.40;2252.80;;;;;;4997325;28;19921;-76
2023/11/28 05:25:03;;;;;;;;;;;154.50;2252.80;;;;;;4979823;28;20024;-76
2023/11/28 05:27:29;;;;;;;;;;;154.40;2252.80;;;;;;4997129;28;19996;-76
2023/11/28 05:29:54;;;;;;;;;;;154.40;2252.80;;;;;;4997402;28;20083;-76
2023/11/28 05:32:20;;;;;;;;;;;154.40;2252.80;;;;;;4979963;28;19905;-76
2023/11/28 05:34:45;;;;;;;;;;;154.50;2252.80;;;;;;4979560;28;20423;-76
2023/11/28 05:37:11;;;;;;;;;;;154.50;2252.80;;;;;;4979561;28;19905;-75
2023/11/28 05:39:37;;;;;;;;;;;154.50;2252.80;;;;;;4979825;28;19928;-75
2023/11/28 05:42:02;;;;;;;;;;;154.40;2252.80;;;;;;4996956;28;20291;-76
2023/11/28 05:44:28;;;;;;;;;;;154.50;2252.80;;;;;;4979545;28;20295;-75
2023/11/28 05:46:53;;;;;;;;;;;154.50;2252.80;;;;;;4979343;28;19906;-76
2023/11/28 05:49:19;;;;;;;;;;;154.50;2252.80;;;;;;4974829;28;19913;-76
2023/11/28 05:51:45;;;;;;;;;;;154.50;2252.80;;;;;;4990614;28;19914;-75
2023/11/28 05:54:10;;;;;;;;;;;154.50;2252.80;;;;;;4998736;28;20283;-75
2023/11/28 05:56:36;;;;;;;;;;;154.50;2252.80;;;;;;4994169;28;19905;-75
2023/11/28 05:59:02;;;;;;;;;;;154.50;2252.80;;;;;;4990041;28;19942;-75
2023/11/28 06:01:28;;;;;;;;;;;154.40;2252.80;;;;;;4987550;28;19912;-75
2023/11/28 06:03:53;;;;;;;;;;;154.40;2252.80;;;;;;4978850;28;20271;-75
2023/11/28 06:06:19;;;;;;;;;;;154.30;2252.80;;;;;;4993792;28;19910;-75
2023/11/28 06:08:45;;;;;;;;;;;154.40;2252.80;;;;;;4991635;28;19956;-75
2023/11/28 06:11:10;;;;;;;;;;;154.30;2252.80;;;;;;4970646;28;19906;-74
2023/11/28 06:13:36;;;;;;;;;;;154.30;2252.80;;;;;;4976239;28;19997;-75
2023/11/28 06:16:05;;;;;;;;;;;154.30;2252.80;;;;;;4963099;28;19906;-75
2023/11/28 06:18:31;;;;;;;;;;;154.30;2252.80;;;;;;4986822;28;19906;-75
2023/11/28 06:20:56;;;;;;;;;;;154.40;2252.80;;;;;;4986550;28;20013;-75
2023/11/28 06:23:23;;;;;;;;;;;154.40;2252.80;;;;;;4976881;28;19910;-75
2023/11/28 06:25:49;;;;;;;;;;;154.40;2252.80;;;;;;4985944;28;19906;-75
2023/11/28 06:28:14;;;;;;;;;;;154.50;2252.80;;;;;;4971522;28;19913;-75
2023/11/28 06:30:40;;;;;;;;;;;154.40;2252.80;;;;;;4990617;28;19932;-75
2023/11/28 06:33:06;;;;;;;;;;;154.50;2252.80;;;;;;4975908;28;19906;-74
2023/11/28 06:35:34;;;;;;;;;;;154.40;2252.80;;;;;;4991097;28;20283;-75
2023/11/28 06:38:00;;;;;;;;;;;154.50;2252.80;;;;;;4971485;28;19950;-75
2023/11/28 06:40:25;;;;;;;;;;;154.40;2252.80;;;;;;4982977;28;20001;-74
2023/11/28 06:42:51;;;;;;;;;;;154.40;2252.80;;;;;;4962513;28;20382;-75
2023/11/28 06:45:17;;;;;;;;;;;154.30;2252.80;;;;;;4991331;28;19913;-74
2023/11/28 06:47:42;;;;;;;;;;;154.30;2252.80;;;;;;4976028;28;19906;-75
2023/11/28 06:50:10;;;;;;;;;;;154.40;2252.80;;;;;;4968105;28;19936;-74
2023/11/28 06:52:36;;;;;;;;;;;154.40;2252.80;;;;;;4969054;28;19918;-74
2023/11/28 06:55:05;;;;;;;;;;;154.40;2252.80;;;;;;4989600;28;19909;-74
2023/11/28 06:57:31;;;;;;;;;;;154.30;2252.80;;;;;;4967333;28;19912;-74
2023/11/28 06:59:57;;;;;;;;;;;154.20;2252.80;;;;;;4985955;28;19997;-76
2023/11/28 07:02:23;;;;;;;;;;;154.20;2252.80;;;;;;4992330;28;20471;-74
2023/11/28 07:04:48;;;;;;;;;;;154.20;2252.80;;;;;;4973580;28;20280;-74
2023/11/28 07:07:14;;;;;;;;;;;154.20;2252.80;;;;;;4986231;28;19965;-77
2023/11/28 07:09:43;;;;;;;;;;;154.20;2252.80;;;;;;4986950;28;19996;-77
2023/11/28 07:12:09;;;;;;;;;;;154.20;2252.80;;;;;;4991935;28;19906;-76
2023/11/28 07:14:35;;;;;;;;;;;154.20;2252.80;;;;;;4991244;28;20052;-76
2023/11/28 07:17:01;;;;;;;;;;;154.20;2252.80;;;;;;4991014;28;19941;-75
2023/11/28 07:19:27;;;;;;;;;;;154.20;2252.80;;;;;;4989083;28;19913;-76
2023/11/28 07:21:52;;;;;;;;;;;154.20;2252.80;;;;;;4988832;28;20272;-76
2023/11/28 07:24:18;;;;;;;;;;;154.10;2252.80;;;;;;4971366;28;19936;-76
2023/11/28 07:26:44;;;;;;;;;;;154.10;2252.80;;;;;;4970599;28;20375;-76
2023/11/28 07:29:12;;;;;;;;;;;154.00;2252.80;;;;;;4972879;28;19910;-75
2023/11/28 07:31:38;;;;;;;;;;;154.00;2252.80;;;;;;4972203;28;19913;-76
2023/11/28 07:34:04;;;;;;;;;;;154.00;2252.80;;;;;;4987127;28;19960;-76
2023/11/28 07:36:29;;;;;;;;;;;154.00;2252.80;;;;;;4986400;28;19973;-77
2023/11/28 07:38:55;;;;;;;;;;;154.00;2252.80;;;;;;4990570;28;20365;-74
2023/11/28 07:41:22;;;;;;;;;;;154.00;2252.80;;;;;;4988716;28;19910;-74
2023/11/28 07:43:48;;;;;;;;;;;154.00;2252.80;;;;;;4992234;28;19917;-73
2023/11/28 07:46:14;;;;;;;;;;;154.00;2252.80;;;;;;4970364;28;20008;-74
2023/11/28 07:48:40;;;;;;;;;;;154.00;2252.80;;;;;;4988783;28;20004;-74
2023/11/28 07:51:06;;;;;;;;;;;154.00;2252.80;;;;;;4986223;28;19942;-74
2023/11/28 07:53:32;;;;;;;;;;;154.10;2252.80;;;;;;4988579;28;19916;-75
2023/11/28 07:55:58;;;;;;;;;;;154.10;2252.80;;;;;;4990412;28;20000;-75
2023/11/28 07:58:24;;;;;;;;;;;154.10;2252.80;;;;;;4983183;28;20138;-75
2023/11/28 08:00:50;;;;;;;;;;;154.10;2252.80;;;;;;4992151;28;19905;-74
2023/11/28 08:03:15;;;;;;;;;;;154.10;2252.80;;;;;;4976384;28;20283;-76
2023/11/28 08:05:41;;;;;;;;;;;154.10;2252.80;;;;;;4973051;28;20008;-74
2023/11/28 08:08:06;;;;;;;;;;;154.10;2252.80;;;;;;4987009;28;19910;-73
2023/11/28 08:10:32;;;;;;;;;;;154.10;2252.80;;;;;;4990807;28;19961;-74
2023/11/28 08:12:58;;;;;;;;;;;154.20;2252.80;;;;;;4974393;28;20398;-73
2023/11/28 08:15:24;;;;;;;;;;;154.20;2252.80;;;;;;4963967;28;19913;-72
2023/11/28 08:17:50;;;;;;;;;;;154.20;2252.80;;;;;;4985451;28;19988;-73
2023/11/28 08:20:16;;;;;;;;;;;154.30;2252.80;;;;;;4991234;28;19919;-74
2023/11/28 08:22:42;;;;;;;;;;;154.30;2252.80;;;;;;4989166;28;20328;-74
2023/11/28 08:25:08;;;;;;;;;;;154.40;2252.80;;;;;;4986648;28;19920;-73
2023/11/28 08:27:33;;;;;;;;;;;154.40;2252.80;;;;;;4990520;28;19948;-74
2023/11/28 08:29:59;;;;;;;;;;;154.50;2252.80;;;;;;4990829;28;19909;-74
2023/11/28 08:32:24;;;;;;;;;;;154.50;2252.80;;;;;;4986493;28;20356;-73
2023/11/28 08:34:50;;;;;;;;;;;179.20;2252.80;;;;;;4992537;28;19913;-74
2023/11/28 08:37:16;;;;;;;;;;;179.20;2252.80;;;;;;4975801;28;20008;-73
2023/11/28 08:39:41;;;;;;;;;;;179.20;2252.80;;;;;;4968440;28;20327;-74
2023/11/28 08:42:07;;;;;;;;;;;179.30;2252.80;;;;;;4979584;28;19910;-74
2023/11/28 08:44:32;;;;;;;;;;;179.30;2252.80;;;;;;4984939;28;19914;-74
2023/11/28 08:46:58;;;;;;;;;;;179.40;2252.80;;;;;;4992008;28;19980;-75
2023/11/28 08:49:24;;;;;;;;;;;179.40;2252.80;;;;;;4991032;28;19906;-74
2023/11/28 08:51:50;;;;;;;;;;;179.40;2252.80;;;;;;4972765;28;19913;-75
2023/11/28 08:54:16;;;;;;;;;;;179.40;2252.80;;;;;;4987631;28;20000;-75
2023/11/28 08:56:41;;;;;;;;;;;179.30;2252.80;;;;;;4972355;28;19953;-75
2023/11/28 08:59:07;;;;;;;;;;;179.30;2252.80;;;;;;4970271;28;19921;-76
2023/11/28 09:01:33;;;;;;;;;;;179.30;2252.80;;;;;;4970470;28;19913;-77
2023/11/28 09:04:00;;;;;;;;;;;179.20;2252.80;;;;;;4973785;28;19914;-74
2023/11/28 09:06:26;;;;;;;;;;;179.20;2252.80;;;;;;4973719;28;19926;-75
2023/11/28 09:08:52;;;;;;;;;;;179.20;2252.80;;;;;;4990154;28;19910;-75
2023/11/28 09:11:18;;;;;;;;;;;179.20;2252.80;;;;;;4966142;28;19906;-74
2023/11/28 09:13:43;;;;;;;;;;;179.30;2252.80;;;;;;4973456;28;19953;-76
2023/11/28 09:16:11;;;;;;;;;;;179.30;2252.80;;;;;;4967496;28;19911;-74
2023/11/28 09:18:37;;;;;;;;;;;179.20;2252.80;;;;;;4982616;28;19910;-73
2023/11/28 09:21:04;;;;;;;;;;;179.30;2252.80;;;;;;4988330;28;20403;-74
2023/11/28 09:23:30;;;;;;;;;;;179.20;2252.80;;;;;;4990344;28;20371;-74
2023/11/28 09:25:56;;;;;;;;;;;179.20;2252.80;;;;;;4988684;28;19914;-74
2023/11/28 09:28:22;;;;;;;;;;;179.20;2252.80;;;;;;4973766;28;19906;-73
2023/11/28 09:30:47;;;;;;;;;;;179.20;2252.80;;;;;;4962664;28;20367;-74
2023/11/28 09:33:13;;;;;;;;;;;179.20;2252.80;;;;;;4984710;28;19905;-74
2023/11/28 09:35:40;;;;;;;;;;;179.20;2252.80;;;;;;4987571;28;19961;-74
2023/11/28 09:38:07;;;;;;;;;;;179.30;2252.80;;;;;;4987542;28;19913;-74
2023/11/28 09:40:33;;;;;;;;;;;179.20;2252.80;;;;;;4989193;28;19910;-74
2023/11/28 09:42:58;;;;;;;;;;;179.30;2252.80;;;;;;4987752;28;19964;-74
2023/11/28 09:45:25;;;;;;;;;;;179.20;2252.80;;;;;;4983519;28;19921;-74
2023/11/28 09:47:52;;;;;;;;;;;179.20;2252.80;;;;;;4990029;28;20464;-75
2023/11/28 09:50:19;;;;;;;;;;;179.20;2252.80;;;;;;4965589;28;19952;-74
2023/11/28 09:52:45;;;;;;;;;;;179.20;2252.80;;;;;;4962809;28;19917;-74
2023/11/28 09:55:15;;;;;;;;;;;179.20;2252.80;;;;;;4991682;28;19932;-75
2023/11/28 09:57:45;;;;;;;;;;;179.30;2252.80;;;;;;4988508;28;19906;-75
2023/11/28 10:00:13;;;;;;;;;;;179.30;2252.80;;;;;;4976040;28;20001;-75
2023/11/28 10:02:41;;;;;;;;;;;179.30;2252.80;;;;;;4993276;28;19913;-75
2023/11/28 10:05:08;;;;;;;;;;;179.30;2252.80;;;;;;4994581;28;20012;-75
2023/11/28 10:07:34;;;;;;;;;;;179.30;2252.80;;;;;;4991803;28;19910;-75
2023/11/28 10:10:00;;;;;;;;;;;179.30;2252.80;;;;;;4974061;28;19953;-75
2023/11/28 10:12:26;;;;;;;;;;;179.30;2252.80;;;;;;4973714;28;20370;-75
2023/11/28 10:14:52;;;;;;;;;;;179.20;2252.80;;;;;;4973223;28;19912;-74
2023/11/28 10:17:17;;;;;;;;;;;179.30;2252.80;;;;;;4978253;28;19913;-74
2023/11/28 10:19:47;;;;;;;;;;;179.30;2252.80;;;;;;4987910;28;19928;-75
2023/11/28 10:22:13;;;;;;;;;;;179.40;2252.80;;;;;;4967936;28;19922;-75
2023/11/28 10:24:39;;;;;;;;;;;179.40;2252.80;;;;;;4976189;28;19968;-75
2023/11/28 10:27:05;;;;;;;;;;;179.40;2252.80;;;;;;4978267;28;19910;-75
2023/11/28 10:29:34;;;;;;;;;;;179.30;2252.80;;;;;;4987216;28;19906;-77
2023/11/28 10:32:00;;;;;;;;;;;179.40;2252.80;;;;;;4977193;28;19918;-75
2023/11/28 10:34:27;;;;;;;;;;;179.40;2252.80;;;;;;4995646;28;19913;-79
2023/11/28 10:36:53;;;;;;;;;;;179.40;2252.80;;;;;;4992884;28;20004;-77
2023/11/28 10:39:20;;;;;;;;;;;179.40;2252.80;;;;;;4993116;28;20389;-75
2023/11/28 10:41:47;;;;;;;;;;;179.40;2252.80;;;;;;4988290;28;20390;-75
2023/11/28 10:44:12;;;;;;;;;;;179.40;2252.80;;;;;;4993924;28;19921;-75
2023/11/28 10:46:39;;;;;;;;;;;179.40;2252.80;;;;;;4995476;28;19906;-75
2023/11/28 10:49:05;;;;;;;;;;;179.40;2252.80;;;;;;4966514;28;19906;-75
2023/11/28 10:51:32;;;;;;;;;;;179.40;2252.80;;;;;;4990304;28;19913;-75
2023/11/28 10:54:07;;;;;;;;;;;179.40;2252.80;;;;;;4987198;28;19973;-75
2023/11/28 10:56:44;;;;;;;;;;;179.40;2252.80;;;;;;4963601;28;19953;-74
2023/11/28 10:59:12;;;;;;;;;;;179.40;2252.80;;;;;;4991731;28;19909;-76
2023/11/28 11:01:43;;;;;;;;;;;179.40;2252.80;;;;;;4973875;28;19910;-76
2023/11/28 11:04:09;;;;;;;;;;;179.40;2252.80;;;;;;4986820;28;20260;-74
2023/11/28 11:06:37;;;;;;;;;;;179.40;2252.80;;;;;;4988930;28;19914;-75
2023/11/28 11:09:05;;;;;;;;;;;179.40;2252.80;;;;;;4993495;28;19905;-76
2023/11/28 11:11:32;;;;;;;;;;;179.40;2252.80;;;;;;4992279;28;19944;-75
2023/11/28 11:14:04;;;;;;;;;;;179.50;2252.80;;;;;;4987906;28;19906;-76
2023/11/28 11:16:37;;;;;;;;;;;179.40;2252.80;;;;;;4977559;28;19921;-76
2023/11/28 11:19:04;;;;;;;;;;;179.50;2252.80;;;;;;4971674;28;19917;-76
2023/11/28 11:21:36;;;;;;;;;;;179.50;2252.80;;;;;;4973557;28;19961;-75
2023/11/28 11:24:02;;;;;;;;;;;179.50;2252.80;;;;;;4989005;28;19918;-75
2023/11/28 11:26:29;;;;;;;;;;;179.50;2252.80;;;;;;4967767;28;19944;-76
2023/11/28 11:28:57;;;;;;;;;;;179.70;2252.80;;;;;;4993264;28;20275;-76
2023/11/28 11:31:23;;;;;;;;;;;179.60;2252.80;;;;;;4983456;28;20370;-77
2023/11/28 11:33:49;;;;;;;;;;;179.70;2252.80;;;;;;4994690;28;19960;-76
2023/11/28 11:36:15;;;;;;;;;;;179.70;2252.80;;;;;;4989070;28;20004;-78
2023/11/28 11:38:41;;;;;;;;;;;179.70;2252.80;;;;;;4973580;28;19909;-77
2023/11/28 11:41:09;;;;;;;;;;;179.70;2252.80;;;;;;4988828;28;20399;-76
2023/11/28 11:43:36;;;;;;;;;;;179.70;2252.80;;;;;;4975463;28;19912;-76
2023/11/28 11:46:06;;;;;;;;;;;179.80;2252.80;;;;;;4966731;28;19912;-76
2023/11/28 11:48:32;;;;;;;;;;;179.80;2252.80;;;;;;4987575;28;19906;-75
2023/11/28 11:50:58;;;;;;;;;;;179.70;2252.80;;;;;;4974327;28;20437;-76
2023/11/28 11:53:26;;;;;;;;;;;179.90;2252.80;;;;;;4984121;28;19917;-75
2023/11/28 11:55:51;;;;;;;;;;;179.90;2252.80;;;;;;4975475;28;19933;-75
2023/11/28 11:58:17;;;;;;;;;;;180.00;2252.80;;;;;;4973311;28;19906;-77
2023/11/28 12:00:42;;;;;;;;;;;180.00;2252.80;;;;;;4988106;28;19906;-75
2023/11/28 12:03:08;;;;;;;;;;;180.10;2252.80;;;;;;4971233;28;20283;-75
2023/11/28 12:05:34;;;;;;;;;;;180.10;2252.80;;;;;;4975163;28;19941;-77
2023/11/28 12:08:01;;;;;;;;;;;180.10;2252.80;;;;;;4974987;28;19910;-75
2023/11/28 12:10:26;;;;;;;;;;;180.10;2252.80;;;;;;4971973;28;19959;-74
2023/11/28 12:12:52;;;;;;;;;;;180.10;2252.80;;;;;;4988832;28;19906;-74
2023/11/28 12:15:18;;;;;;;;;;;180.00;2252.80;;;;;;4970053;28;20367;-75
2023/11/28 12:17:43;;;;;;;;;;;180.10;2252.80;;;;;;4989497;28;19906;-74
2023/11/28 12:20:09;;;;;;;;;;;180.10;2252.80;;;;;;4985503;28;20414;-74
2023/11/28 12:22:35;;;;;;;;;;;180.00;2252.80;;;;;;4972571;28;19936;-74
2023/11/28 12:25:01;;;;;;;;;;;180.10;2252.80;;;;;;4965070;28;19918;-74
2023/11/28 12:27:27;;;;;;;;;;;180.00;2252.80;;;;;;4960687;28;19922;-74
2023/11/28 12:29:53;;;;;;;;;;;180.00;2252.80;;;;;;4986707;28;19906;-74
2023/11/28 12:32:19;;;;;;;;;;;180.00;2252.80;;;;;;4966309;28;19913;-74
2023/11/28 12:34:45;;;;;;;;;;;180.00;2252.80;;;;;;4969378;28;20004;-74
2023/11/28 12:37:10;;;;;;;;;;;180.00;2252.80;;;;;;4977533;28;19906;-74
2023/11/28 12:39:38;;;;;;;;;;;180.00;2252.80;;;;;;4967371;28;19906;-75
2023/11/28 12:42:04;;;;;;;;;;;179.90;2252.80;;;;;;4971002;28;20374;-74
2023/11/28 12:44:32;;;;;;;;;;;179.80;2252.80;;;;;;4967585;28;19914;-74
2023/11/28 12:46:59;;;;;;;;;;;179.80;2252.80;;;;;;4969680;28;19952;-74
2023/11/28 12:49:25;;;;;;;;;;;179.70;2252.80;;;;;;4968292;28;19993;-75
2023/11/28 12:51:50;;;;;;;;;;;179.70;2252.80;;;;;;4966553;28;19996;-74
2023/11/28 12:54:21;;;;;;;;;;;179.70;2252.80;;;;;;4971473;28;19929;-74
2023/11/28 12:56:52;;;;;;;;;;;179.70;2252.80;;;;;;4968351;28;19906;-75
2023/11/28 12:59:18;;;;;;;;;;;179.70;2252.80;;;;;;4967971;28;19906;-75
2023/11/28 13:01:44;;;;;;;;;;;179.70;2252.80;;;;;;4972063;28;20379;-74
2023/11/28 13:04:10;;;;;;;;;;;179.70;2252.80;;;;;;4970936;28;20394;-74
2023/11/28 13:06:37;;;;;;;;;;;179.70;2252.80;;;;;;4979518;28;20016;-75
2023/11/28 13:09:03;;;;;;;;;;;179.70;2252.80;;;;;;4972302;28;19906;-74
2023/11/28 13:11:32;;;;;;;;;;;179.70;2252.80;;;;;;4966476;28;19913;-74
2023/11/28 13:13:58;;;;;;;;;;;179.70;2252.80;;;;;;4971348;28;19913;-75
2023/11/28 13:16:23;;;;;;;;;;;179.60;2252.80;;;;;;4965596;28;19906;-74
2023/11/28 13:18:49;;;;;;;;;;;179.60;2252.80;;;;;;4971752;28;19906;-75
2023/11/28 13:21:15;;;;;;;;;;;179.60;2252.80;;;;;;4970530;28;20012;-74
2023/11/28 13:23:41;;;;;;;;;;;179.60;2252.80;;;;;;4968577;28;19910;-74
2023/11/28 13:26:06;;;;;;;;;;;179.70;2252.80;;;;;;4962508;28;19909;-74
2023/11/28 13:28:33;;;;;;;;;;;179.70;2252.80;;;;;;4961125;28;19910;-74
2023/11/28 13:30:59;;;;;;;;;;;179.70;2252.80;;;;;;4969809;28;19933;-74
2023/11/28 13:33:26;;;;;;;;;;;179.80;2252.80;;;;;;4972487;28;19913;-74
2023/11/28 13:35:52;;;;;;;;;;;179.80;2252.80;;;;;;4983317;28;19945;-75